Time;durP1;ratioP1;P1;durP2;ratioP2;P2;SDS_P1;SDS_P2;PMS_P1;PMS_P2;Temp;Humidity;BMP_temperature;BMP_pressure;BME280_temperature;BME280_humidity;BME280_pressure;Samples;Min_cycle;Max_cycle;Signal;HPM_P1;HPM_P2
2023/08/27 00:00:28;;;;;;;2.85;1.55;;;15.80;99.90;;;;;;5018910;28;20064;-84
2023/08/27 00:02:54;;;;;;;5.85;1.95;;;15.80;99.90;;;;;;5018854;28;20494;-84
2023/08/27 00:05:20;;;;;;;7.05;1.90;;;15.70;99.90;;;;;;5012844;28;20049;-84
2023/08/27 00:07:45;;;;;;;5.03;2.00;;;15.70;99.90;;;;;;5013625;28;20386;-84
2023/08/27 00:10:12;;;;;;;3.88;2.05;;;15.70;99.90;;;;;;5013443;28;20453;-84
2023/08/27 00:12:37;;;;;;;5.15;1.70;;;15.70;99.90;;;;;;5012523;28;20269;-84
2023/08/27 00:15:04;;;;;;;5.75;1.90;;;15.70;99.90;;;;;;5031573;28;20030;-85
2023/08/27 00:17:30;;;;;;;7.82;1.92;;;15.70;99.90;;;;;;5025646;28;20068;-85
2023/08/27 00:19:55;;;;;;;9.13;1.90;;;15.70;99.90;;;;;;5031521;28;20026;-84
2023/08/27 00:22:21;;;;;;;5.18;1.80;;;15.70;99.90;;;;;;5015608;28;20038;-84
2023/08/27 00:24:47;;;;;;;8.63;1.83;;;15.70;99.90;;;;;;5013370;28;20057;-84
2023/08/27 00:27:13;;;;;;;11.80;2.17;;;15.70;99.90;;;;;;5032109;28;20389;-84
2023/08/27 00:29:38;;;;;;;7.60;2.30;;;15.60;99.90;;;;;;5014526;28;20490;-84
2023/08/27 00:32:05;;;;;;;7.28;2.10;;;15.50;99.90;;;;;;5014533;28;20037;-84
2023/08/27 00:34:33;;;;;;;11.75;2.25;;;15.40;99.90;;;;;;5012049;28;20084;-84
2023/08/27 00:37:02;;;;;;;6.53;2.05;;;15.40;99.90;;;;;;5023600;28;20040;-84
2023/08/27 00:39:29;;;;;;;5.38;2.10;;;15.40;99.90;;;;;;5031881;28;20025;-84
2023/08/27 00:41:55;;;;;;;4.63;2.15;;;15.40;99.90;;;;;;5015415;28;20067;-84
2023/08/27 00:44:21;;;;;;;9.80;2.28;;;15.40;99.90;;;;;;5007400;28;20025;-84
2023/08/27 00:46:48;;;;;;;2.95;1.80;;;15.40;99.90;;;;;;5030185;28;20040;-84
2023/08/27 00:49:15;;;;;;;5.97;1.85;;;15.40;99.90;;;;;;5029869;28;20026;-84
2023/08/27 00:51:42;;;;;;;7.97;2.03;;;15.40;99.90;;;;;;5014169;28;20072;-83
2023/08/27 00:54:08;;;;;;;6.40;1.90;;;15.40;99.90;;;;;;5011812;28;20037;-84
2023/08/27 00:56:34;;;;;;;6.68;1.95;;;15.40;99.90;;;;;;5011779;28;20030;-83
2023/08/27 00:59:01;;;;;;;5.78;1.77;;;15.40;99.90;;;;;;5014124;28;20572;-84
2023/08/27 01:01:28;;;;;;;5.47;1.83;;;15.40;99.90;;;;;;5025857;28;20381;-83
2023/08/27 01:03:53;;;;;;;6.05;2.00;;;15.40;99.90;;;;;;5018806;28;20041;-83
2023/08/27 01:06:19;;;;;;;4.85;2.10;;;15.40;99.90;;;;;;5012651;28;20030;-84
2023/08/27 01:08:53;;;;;;;6.75;2.03;;;15.40;99.90;;;;;;4994231;28;20125;-84
2023/08/27 01:11:28;;;;;;;6.82;1.90;;;15.40;99.90;;;;;;5013006;28;20022;-84
2023/08/27 01:14:03;;;;;;;4.90;2.10;;;15.40;99.90;;;;;;5011333;28;20401;-84
2023/08/27 01:16:30;;;;;;;7.97;2.33;;;15.30;99.90;;;;;;5027560;28;20057;-83
2023/08/27 01:18:58;;;;;;;4.50;2.00;;;15.30;99.90;;;;;;5030315;28;20042;-84
2023/08/27 01:21:25;;;;;;;5.72;2.10;;;15.30;99.90;;;;;;5013285;28;20396;-84
2023/08/27 01:23:52;;;;;;;8.23;1.98;;;15.20;99.90;;;;;;5020868;28;20040;-84
2023/08/27 01:27:06;;;;;;;7.18;1.90;;;15.20;99.90;;;;;;4998818;28;20074;-83
2023/08/27 01:29:55;;;;;;;4.70;2.05;;;15.20;99.90;;;;;;5002064;28;20034;-83
2023/08/27 01:32:23;;;;;;;9.13;2.58;;;15.10;99.90;;;;;;5011466;28;20030;-84
2023/08/27 01:34:49;;;;;;;6.07;1.98;;;15.10;99.90;;;;;;5011720;28;20540;-84
2023/08/27 01:37:15;;;;;;;6.15;2.15;;;15.10;99.90;;;;;;5010968;28;20032;-84
2023/08/27 01:39:44;;;;;;;8.02;2.10;;;15.10;99.90;;;;;;5018081;28;20025;-84
2023/08/27 01:42:11;;;;;;;5.82;2.03;;;15.10;99.90;;;;;;5027669;28;20378;-83
2023/08/27 01:44:37;;;;;;;4.22;1.80;;;15.10;99.90;;;;;;5030620;28;20029;-83
2023/08/27 01:47:03;;;;;;;3.67;1.90;;;15.10;99.90;;;;;;5030553;28;20030;-83
2023/08/27 01:49:29;;;;;;;8.40;2.53;;;15.10;99.90;;;;;;5028762;28;20017;-83
2023/08/27 01:51:54;;;;;;;4.50;1.83;;;15.10;99.90;;;;;;5013583;28;20033;-84
2023/08/27 01:54:20;;;;;;;6.18;1.95;;;15.10;99.90;;;;;;5011328;28;20029;-83
2023/08/27 01:56:46;;;;;;;6.03;2.00;;;15.10;99.90;;;;;;5017132;28;20029;-83
2023/08/27 01:59:11;;;;;;;4.88;2.00;;;15.10;99.90;;;;;;5012590;28;20028;-83
2023/08/27 02:01:37;;;;;;;6.47;2.35;;;15.00;99.90;;;;;;5029790;28;20021;-83
2023/08/27 02:04:03;;;;;;;3.05;2.10;;;15.00;99.90;;;;;;5027639;28;20508;-83
2023/08/27 02:06:29;;;;;;;4.38;1.95;;;14.90;99.90;;;;;;5020047;28;20112;-83
2023/08/27 02:08:55;;;;;;;5.30;2.20;;;14.90;99.90;;;;;;5018490;28;20073;-84
2023/08/27 02:11:21;;;;;;;7.20;2.20;;;14.90;99.90;;;;;;5010913;28;20029;-84
2023/08/27 02:13:47;;;;;;;4.05;1.90;;;14.90;99.90;;;;;;5010328;28;20081;-83
2023/08/27 02:16:12;;;;;;;5.45;2.20;;;15.00;99.90;;;;;;5010065;28;20053;-83
2023/08/27 02:18:38;;;;;;;7.00;2.53;;;14.90;99.90;;;;;;5010164;28;20029;-83
2023/08/27 02:21:04;;;;;;;6.10;2.03;;;14.90;99.90;;;;;;5028895;28;20036;-83
2023/08/27 02:23:29;;;;;;;4.63;2.00;;;15.00;99.90;;;;;;5010151;28;20026;-83
2023/08/27 02:25:55;;;;;;;5.22;1.88;;;14.90;99.90;;;;;;4992919;28;20086;-83
2023/08/27 02:28:20;;;;;;;6.25;2.30;;;15.00;99.90;;;;;;5030571;28;20030;-83
2023/08/27 02:30:53;;;;;;;11.68;2.30;;;15.00;99.90;;;;;;5007606;28;20029;-83
2023/08/27 02:33:19;;;;;;;7.55;2.08;;;14.90;99.90;;;;;;5029910;28;20042;-84
2023/08/27 02:35:45;;;;;;;4.90;1.85;;;15.00;99.90;;;;;;5026820;28;20036;-84
2023/08/27 02:38:10;;;;;;;6.70;1.80;;;15.00;99.90;;;;;;5029742;28;20025;-84
2023/08/27 02:40:36;;;;;;;3.55;1.88;;;15.00;99.90;;;;;;5029591;28;20103;-85
2023/08/27 02:43:03;;;;;;;4.03;2.00;;;15.00;99.90;;;;;;5029484;28;20026;-84
2023/08/27 02:45:28;;;;;;;6.28;1.90;;;15.00;99.90;;;;;;5011482;28;20033;-83
2023/08/27 02:47:54;;;;;;;6.70;2.03;;;14.90;99.90;;;;;;5024931;28;20068;-84
2023/08/27 02:50:20;;;;;;;4.32;2.00;;;14.90;99.90;;;;;;5009699;28;20034;-84
2023/08/27 02:52:45;;;;;;;6.07;1.80;;;14.90;99.90;;;;;;5009656;28;20328;-83
2023/08/27 02:55:11;;;;;;;3.53;1.80;;;14.80;99.90;;;;;;5019822;28;20061;-84
2023/08/27 02:57:36;;;;;;;10.45;2.90;;;14.80;99.90;;;;;;5029097;28;20026;-84
2023/08/27 03:00:03;;;;;;;6.68;1.90;;;14.80;99.90;;;;;;4991877;28;20026;-84
2023/08/27 03:02:29;;;;;;;5.22;1.98;;;14.90;99.90;;;;;;5012395;28;20060;-84
2023/08/27 03:04:56;;;;;;;8.40;2.20;;;14.80;99.90;;;;;;5023855;28;20029;-84
2023/08/27 03:07:22;;;;;;;7.43;2.30;;;14.80;99.90;;;;;;5029594;28;20492;-83
2023/08/27 03:09:48;;;;;;;4.95;1.90;;;14.80;99.90;;;;;;5029312;28;20436;-83
2023/08/27 03:12:14;;;;;;;9.15;2.22;;;14.80;99.90;;;;;;5027251;28;20030;-83
2023/08/27 03:14:40;;;;;;;7.00;1.92;;;14.80;99.90;;;;;;5029021;28;20021;-84
2023/08/27 03:17:06;;;;;;;9.10;2.15;;;14.80;99.90;;;;;;5028652;28;20034;-83
2023/08/27 03:19:32;;;;;;;3.45;2.10;;;14.80;99.90;;;;;;5026045;28;20022;-84
2023/08/27 03:21:57;;;;;;;6.35;2.22;;;14.70;99.90;;;;;;5015717;28;20033;-83
2023/08/27 03:24:23;;;;;;;5.63;2.10;;;14.60;99.90;;;;;;5029905;28;20022;-84
2023/08/27 03:26:49;;;;;;;10.60;1.98;;;14.50;99.90;;;;;;5024261;28;20029;-83
2023/08/27 03:29:15;;;;;;;6.53;2.13;;;14.50;99.90;;;;;;5008885;28;20107;-83
2023/08/27 03:31:41;;;;;;;9.55;2.67;;;14.50;99.90;;;;;;5009015;28;20085;-83
2023/08/27 03:34:07;;;;;;;11.10;2.20;;;14.40;99.90;;;;;;5009185;28;20018;-84
2023/08/27 03:36:32;;;;;;;9.35;2.20;;;14.40;99.90;;;;;;4991468;28;20038;-82
2023/08/27 03:38:58;;;;;;;4.75;1.92;;;14.30;99.90;;;;;;5009956;28;20022;-85
2023/08/27 03:41:24;;;;;;;6.03;2.00;;;14.40;99.90;;;;;;5016255;28;20033;-82
2023/08/27 03:43:49;;;;;;;8.70;2.28;;;14.30;99.90;;;;;;5026263;28;20029;-84
2023/08/27 03:46:15;;;;;;;6.88;2.53;;;14.30;99.90;;;;;;5017218;28;20444;-82
2023/08/27 03:48:41;;;;;;;6.78;2.28;;;14.20;99.90;;;;;;5026198;28;20029;-83
2023/08/27 03:51:06;;;;;;;3.95;2.35;;;14.20;99.90;;;;;;5010948;28;20034;-84
2023/08/27 03:53:32;;;;;;;8.15;2.08;;;14.20;99.90;;;;;;5028237;28;20060;-85
2023/08/27 03:56:03;;;;;;;6.85;2.28;;;14.20;99.90;;;;;;5029624;28;20029;-84
2023/08/27 03:58:29;;;;;;;6.75;2.10;;;14.20;99.90;;;;;;5029200;28;20017;-85
2023/08/27 04:00:54;;;;;;;4.32;2.17;;;14.10;99.90;;;;;;5028161;28;20051;-85
2023/08/27 04:03:20;;;;;;;6.97;2.40;;;14.10;99.90;;;;;;5039993;28;20125;-84
2023/08/27 04:05:49;;;;;;;12.00;2.47;;;14.20;99.90;;;;;;5027973;28;20571;-83
2023/08/27 04:08:15;;;;;;;5.28;2.20;;;14.20;99.90;;;;;;5028416;28;20037;-84
2023/08/27 04:10:53;;;;;;;4.05;2.08;;;14.10;99.90;;;;;;5027607;28;20080;-84
2023/08/27 04:13:19;;;;;;;6.90;2.33;;;14.20;99.90;;;;;;5028465;28;20045;-83
2023/08/27 04:16:01;;;;;;;7.32;2.08;;;14.20;99.90;;;;;;5028516;28;20018;-82
2023/08/27 04:18:27;;;;;;;5.78;2.30;;;14.00;99.90;;;;;;5029338;28;20057;-83
2023/08/27 04:20:53;;;;;;;7.78;2.30;;;14.00;99.90;;;;;;5027796;28;20053;-83
2023/08/27 04:23:19;;;;;;;7.68;2.85;;;14.10;99.90;;;;;;5028494;28;20018;-82
2023/08/27 04:25:45;;;;;;;6.00;2.10;;;14.00;99.90;;;;;;5014117;28;20079;-84
2023/08/27 04:28:10;;;;;;;4.20;2.20;;;13.90;99.90;;;;;;5031230;28;20114;-83
2023/08/27 04:30:37;;;;;;;5.35;2.50;;;13.90;99.90;;;;;;5031809;28;20109;-82
2023/08/27 04:33:05;;;;;;;7.15;2.97;;;14.00;99.90;;;;;;5018783;28;20448;-83
2023/08/27 04:35:31;;;;;;;6.70;2.23;;;13.90;99.90;;;;;;5001394;28;20028;-83
2023/08/27 04:37:57;;;;;;;10.00;2.22;;;13.90;99.90;;;;;;5032383;28;20410;-82
2023/08/27 04:40:23;;;;;;;7.15;2.70;;;13.90;99.90;;;;;;5031366;28;20503;-83
2023/08/27 04:42:48;;;;;;;8.10;2.10;;;13.90;99.90;;;;;;5003418;28;20025;-83
2023/08/27 04:45:14;;;;;;;7.13;2.35;;;13.90;99.90;;;;;;5020651;28;20030;-83
2023/08/27 04:47:41;;;;;;;13.73;2.42;;;13.90;99.90;;;;;;5031670;28;20033;-83
2023/08/27 04:50:07;;;;;;;4.10;2.20;;;13.90;99.90;;;;;;5013797;28;20033;-82
2023/08/27 04:52:34;;;;;;;5.82;2.40;;;13.90;99.90;;;;;;5030262;28;20036;-83
2023/08/27 04:55:00;;;;;;;3.85;2.13;;;14.00;99.90;;;;;;5032147;28;20389;-83
2023/08/27 04:57:25;;;;;;;12.15;2.58;;;14.00;99.90;;;;;;5031595;28;20017;-83
2023/08/27 04:59:51;;;;;;;9.52;2.30;;;13.90;99.90;;;;;;5030518;28;20109;-83
2023/08/27 05:02:17;;;;;;;7.78;2.50;;;13.90;99.90;;;;;;5031404;28;20025;-83
2023/08/27 05:04:43;;;;;;;15.50;2.30;;;13.90;99.90;;;;;;5013216;28;20034;-84
2023/08/27 05:07:10;;;;;;;6.47;2.20;;;13.80;99.90;;;;;;5020317;28;20030;-82
2023/08/27 05:09:36;;;;;;;12.63;3.45;;;13.80;99.90;;;;;;5011496;28;20073;-83
2023/08/27 05:12:01;;;;;;;11.38;2.45;;;13.80;99.90;;;;;;5018232;28;20034;-83
2023/08/27 05:14:27;;;;;;;11.00;3.20;;;13.80;99.90;;;;;;5030584;28;20116;-83
2023/08/27 05:16:53;;;;;;;4.68;2.17;;;13.80;99.90;;;;;;5013565;28;20353;-83
2023/08/27 05:19:18;;;;;;;9.85;2.50;;;13.80;99.90;;;;;;5031102;28;20405;-82
2023/08/27 05:21:44;;;;;;;5.78;2.22;;;13.80;99.90;;;;;;5030241;28;20033;-83
2023/08/27 05:24:09;;;;;;;7.10;2.20;;;13.80;99.90;;;;;;5020534;28;20030;-83
2023/08/27 05:26:35;;;;;;;4.82;2.42;;;13.90;99.90;;;;;;5011361;28;20025;-83
2023/08/27 05:29:01;;;;;;;9.00;2.45;;;13.90;99.90;;;;;;5019599;28;20438;-83
2023/08/27 05:31:26;;;;;;;9.10;2.80;;;13.90;99.90;;;;;;5030288;28;20052;-83
2023/08/27 05:33:52;;;;;;;7.10;2.95;;;13.80;99.90;;;;;;5030304;28;20045;-83
2023/08/27 05:36:18;;;;;;;10.75;2.53;;;13.80;99.90;;;;;;5028541;28;20009;-83
2023/08/27 05:38:43;;;;;;;12.63;2.72;;;13.90;99.90;;;;;;5030654;28;20386;-83
2023/08/27 05:41:09;;;;;;;8.77;2.55;;;13.90;99.90;;;;;;5030327;28;20022;-83
2023/08/27 05:43:35;;;;;;;9.18;2.47;;;13.90;99.90;;;;;;5031178;28;20029;-83
2023/08/27 05:46:00;;;;;;;4.72;2.50;;;13.80;99.90;;;;;;5030084;28;20025;-82
2023/08/27 05:48:26;;;;;;;7.07;2.40;;;13.80;99.90;;;;;;5030367;28;20021;-83
2023/08/27 05:50:51;;;;;;;8.65;2.90;;;13.70;99.90;;;;;;5014759;28;20444;-83
2023/08/27 05:53:17;;;;;;;4.03;2.58;;;13.80;99.90;;;;;;5001682;28;20042;-83
2023/08/27 05:55:46;;;;;;;8.15;2.70;;;13.80;99.90;;;;;;5030280;28;20032;-84
2023/08/27 05:58:11;;;;;;;8.48;2.55;;;13.80;99.90;;;;;;5026998;28;20029;-85
2023/08/27 06:00:37;;;;;;;9.70;2.90;;;13.80;99.90;;;;;;5028335;28;20033;-85
2023/08/27 06:03:03;;;;;;;7.65;2.45;;;13.80;99.90;;;;;;5011455;28;20034;-84
2023/08/27 06:05:29;;;;;;;5.47;2.50;;;13.70;99.90;;;;;;5010025;28;20060;-85
2023/08/27 06:07:54;;;;;;;6.18;2.50;;;13.70;99.90;;;;;;5028020;28;20111;-84
2023/08/27 06:10:20;;;;;;;8.00;2.75;;;13.70;99.90;;;;;;5030026;28;20041;-85
2023/08/27 06:12:46;;;;;;;10.07;2.60;;;13.70;99.90;;;;;;5028227;28;20029;-85
2023/08/27 06:15:12;;;;;;;5.85;3.03;;;13.80;99.90;;;;;;4998294;28;20048;-86
2023/08/27 06:17:37;;;;;;;8.88;2.50;;;13.80;99.90;;;;;;5020455;28;20045;-87
2023/08/27 06:20:05;;;;;;;8.15;3.05;;;13.80;99.90;;;;;;5018895;28;20383;-86
2023/08/27 06:22:30;;;;;;;16.37;2.90;;;13.70;99.90;;;;;;5024551;28;20136;-86
2023/08/27 06:24:56;;;;;;;7.53;2.90;;;13.80;99.90;;;;;;5009350;28;20675;-87
2023/08/27 06:27:21;;;;;;;4.50;2.33;;;13.80;99.90;;;;;;5028714;28;20033;-86
2023/08/27 06:29:47;;;;;;;7.82;2.65;;;13.70;99.90;;;;;;5024128;28;20026;-86
2023/08/27 06:32:16;;;;;;;6.28;2.53;;;13.80;99.90;;;;;;5025824;28;20413;-87
2023/08/27 06:34:41;;;;;;;;;;;13.80;99.90;;;;;;4998720;28;20076;-86
2023/08/27 06:37:07;;;;;;;8.32;2.88;;;13.80;99.90;;;;;;5024982;28;20460;-88
2023/08/27 06:39:33;;;;;;;6.25;2.63;;;13.80;99.90;;;;;;5000308;28;20490;-86
2023/08/27 06:41:58;;;;;;;10.52;2.50;;;13.90;99.90;;;;;;5019807;28;20114;-86
2023/08/27 06:44:24;;;;;;;7.38;2.53;;;13.90;99.90;;;;;;5021012;28;20486;-86
2023/08/27 06:46:49;;;;;;;5.63;2.40;;;14.00;99.90;;;;;;5022019;28;20095;-87
2023/08/27 06:49:15;;;;;;;5.07;2.60;;;14.00;99.90;;;;;;5019987;28;20041;-86
2023/08/27 06:51:41;;;;;;;10.95;2.50;;;14.20;99.90;;;;;;5023577;28;20554;-87
2023/08/27 06:54:07;;;;;;;5.72;2.60;;;14.30;99.90;;;;;;5020989;28;20037;-86
2023/08/27 06:56:33;;;;;;;8.05;2.58;;;14.40;99.90;;;;;;5023215;28;20075;-85
2023/08/27 06:58:59;;;;;;;5.90;2.63;;;14.50;99.90;;;;;;5022474;28;20113;-86
2023/08/27 07:01:24;;;;;;;7.85;2.60;;;14.50;99.90;;;;;;5024599;28;20512;-85
2023/08/27 07:03:50;;;;;;;4.13;2.15;;;14.50;99.90;;;;;;5020067;28;20494;-85
2023/08/27 07:06:16;;;;;;;8.82;2.45;;;14.60;99.90;;;;;;5018852;28;20106;-85
2023/08/27 07:08:41;;;;;;;7.22;2.67;;;14.70;99.90;;;;;;5032082;28;20036;-85
2023/08/27 07:11:07;;;;;;;7.20;2.63;;;14.70;99.90;;;;;;5034107;28;20608;-86
2023/08/27 07:13:33;;;;;;;10.30;2.70;;;14.80;99.90;;;;;;5035361;28;20451;-85
2023/08/27 07:15:58;;;;;;;5.75;2.50;;;14.80;99.90;;;;;;5041999;28;21011;-85
2023/08/27 07:18:24;;;;;;;7.85;2.75;;;14.90;99.90;;;;;;5030681;28;20029;-85
2023/08/27 07:20:52;;;;;;;9.98;2.83;;;14.90;99.90;;;;;;5031113;28;20025;-85
2023/08/27 07:23:18;;;;;;;;;;;14.90;99.90;;;;;;5049334;28;20033;-85
2023/08/27 07:25:43;;;;;;;11.88;2.90;;;15.00;99.90;;;;;;5048777;28;19927;-85
2023/08/27 07:28:10;;;;;;;9.27;2.85;;;15.00;99.90;;;;;;5048869;28;20107;-85
2023/08/27 07:30:36;;;;;;;7.25;2.80;;;15.10;99.90;;;;;;5049436;28;20051;-84
2023/08/27 07:33:02;;;;;;;14.98;3.05;;;15.10;99.90;;;;;;5016367;28;20025;-91
2023/08/27 07:35:29;;;;;;;8.98;2.75;;;15.20;99.90;;;;;;5028962;28;20028;-84
2023/08/27 07:37:55;;;;;;;7.38;3.25;;;15.30;99.90;;;;;;5028873;28;20026;-84
2023/08/27 07:40:20;;;;;;;3.33;2.40;;;15.40;99.90;;;;;;5028770;28;20033;-84
2023/08/27 07:42:46;;;;;;;6.28;2.75;;;15.50;99.90;;;;;;5028299;28;20042;-83
2023/08/27 07:45:12;;;;;;;11.27;2.80;;;15.60;99.90;;;;;;5018759;28;20017;-84
2023/08/27 07:47:37;;;;;;;7.57;2.50;;;15.60;99.90;;;;;;5002496;28;20025;-86
2023/08/27 07:50:06;;;;;;;9.95;2.50;;;15.70;99.90;;;;;;5018698;28;20021;-86
2023/08/27 07:52:31;;;;;;;;;;;15.90;99.90;;;;;;5018861;28;20018;-86
2023/08/27 07:54:57;;;;;;;9.38;2.25;;;15.90;99.90;;;;;;5017003;28;20293;-83
2023/08/27 07:57:23;;;;;;;7.25;2.42;;;15.90;99.90;;;;;;5017967;28;20033;-83
2023/08/27 07:59:49;;;;;;;6.53;2.83;;;15.90;99.90;;;;;;5020172;28;20034;-88
2023/08/27 08:02:14;;;;;;;7.10;2.35;;;16.00;99.90;;;;;;5029376;28;20041;-84
2023/08/27 08:04:40;;;;;;;15.25;3.17;;;16.20;99.90;;;;;;5033340;28;20026;-84
2023/08/27 08:07:06;;;;;;;6.80;2.20;;;16.20;99.90;;;;;;5033316;28;20523;-84
2023/08/27 08:09:31;;;;;;;11.43;2.70;;;16.40;99.90;;;;;;5034939;28;20072;-85
2023/08/27 08:11:57;;;;;;;6.65;2.50;;;16.50;99.90;;;;;;5032355;28;20030;-84
2023/08/27 08:14:23;;;;;;;5.93;2.60;;;16.70;99.90;;;;;;5017482;28;20124;-85
2023/08/27 08:16:52;;;;;;;6.45;2.30;;;16.80;99.90;;;;;;5025620;28;20021;-84
2023/08/27 08:19:17;;;;;;;9.43;2.75;;;16.90;99.90;;;;;;5032176;28;20068;-84
2023/08/27 08:21:43;;;;;;;7.35;2.35;;;17.00;99.90;;;;;;5032150;28;20123;-83
2023/08/27 08:24:09;;;;;;;5.82;2.17;;;17.10;99.90;;;;;;5032905;28;20030;-85
2023/08/27 08:26:34;;;;;;;5.22;2.22;;;17.20;99.90;;;;;;5016022;28;20025;-83
2023/08/27 08:29:00;;;;;;;5.85;2.35;;;17.30;99.90;;;;;;5032227;28;20032;-88
2023/08/27 08:31:25;;;;;;;6.40;2.42;;;17.40;99.90;;;;;;5033980;28;20033;-86
2023/08/27 08:33:51;;;;;;;10.23;2.22;;;17.50;99.90;;;;;;5032069;28;20080;-83
2023/08/27 08:36:16;;;;;;;9.48;2.60;;;17.60;99.90;;;;;;5030329;28;20064;-83
2023/08/27 08:38:42;;;;;;;10.18;2.50;;;17.60;99.90;;;;;;5031164;28;20033;-84
2023/08/27 08:41:11;;;;;;;8.07;2.50;;;17.70;99.90;;;;;;5032407;28;20056;-83
2023/08/27 08:43:47;;;;;;;7.18;2.58;;;17.70;99.90;;;;;;5031634;28;20036;-84
2023/08/27 08:46:18;;;;;;;5.90;2.30;;;17.80;99.90;;;;;;5013852;28;20044;-85
2023/08/27 08:48:51;;;;;;;5.18;2.22;;;17.80;99.90;;;;;;5044245;28;20037;-85
2023/08/27 08:51:27;;;;;;;5.50;2.08;;;17.90;99.90;;;;;;5020851;28;20451;-86
2023/08/27 08:53:58;;;;;;;6.25;2.33;;;17.90;99.90;;;;;;5038233;28;20029;-83
2023/08/27 08:56:37;;;;;;;8.75;2.42;;;18.00;99.90;;;;;;5040815;28;20456;-84
2023/08/27 08:59:04;;;;;;;5.93;2.20;;;18.10;99.90;;;;;;5031359;28;20404;-85
2023/08/27 09:01:30;;;;;;;4.25;1.90;;;18.10;99.90;;;;;;5031639;28;20034;-83
2023/08/27 09:03:57;;;;;;;4.35;1.98;;;18.30;99.90;;;;;;5029321;28;20127;-83
2023/08/27 09:06:22;;;;;;;5.60;1.80;;;18.30;99.90;;;;;;5031224;28;20021;-83
2023/08/27 09:08:50;;;;;;;8.13;1.92;;;18.40;99.90;;;;;;5031212;28;20052;-84
2023/08/27 09:11:16;;;;;;;7.55;2.22;;;18.60;99.90;;;;;;5029799;28;20022;-82
2023/08/27 09:13:42;;;;;;;7.05;2.25;;;18.70;99.90;;;;;;5036235;28;20028;-82
2023/08/27 09:16:09;;;;;;;6.78;2.10;;;18.80;99.90;;;;;;5036479;28;20532;-85
2023/08/27 09:18:35;;;;;;;10.43;2.67;;;18.90;99.90;;;;;;5021830;28;20029;-82
2023/08/27 09:21:02;;;;;;;14.00;2.40;;;19.00;99.90;;;;;;5020009;28;20014;-84
2023/08/27 09:23:32;;;;;;;9.65;1.83;;;19.10;99.90;;;;;;5019812;28;20033;-84
2023/08/27 09:26:02;;;;;;;5.50;1.70;;;19.20;99.90;;;;;;5019498;28;20045;-83
2023/08/27 09:28:28;;;;;;;5.13;1.70;;;19.20;99.90;;;;;;5021663;28;20486;-84
2023/08/27 09:30:54;;;;;;;3.63;1.45;;;19.10;99.90;;;;;;5018882;28;20036;-84
2023/08/27 09:33:34;;;;;;;10.60;1.98;;;19.20;99.90;;;;;;5027872;28;20036;-84
2023/08/27 09:35:59;;;;;;;4.18;1.60;;;19.40;99.90;;;;;;5030789;28;20122;-82
2023/08/27 09:38:27;;;;;;;6.68;1.95;;;19.50;99.90;;;;;;5031113;28;20116;-83
2023/08/27 09:40:53;;;;;;;4.57;1.70;;;19.50;99.90;;;;;;5040254;28;20021;-85
2023/08/27 09:43:26;;;;;;;6.80;1.58;;;19.60;99.90;;;;;;5018758;28;20034;-82
2023/08/27 09:45:52;;;;;;;5.68;1.63;;;19.70;99.90;;;;;;5010879;28;20069;-84
2023/08/27 09:48:27;;;;;;;5.68;1.55;;;19.70;99.90;;;;;;5031573;28;20054;-82
2023/08/27 09:51:05;;;;;;;4.82;1.90;;;19.80;99.90;;;;;;5036892;28;20021;-87
2023/08/27 09:53:31;;;;;;;4.28;1.42;;;19.70;99.90;;;;;;5031133;28;20104;-82
2023/08/27 09:55:57;;;;;;;7.13;1.83;;;19.70;99.90;;;;;;5038460;28;20021;-82
2023/08/27 09:58:26;;;;;;;8.35;1.65;;;19.70;99.90;;;;;;5036814;28;20029;-84
2023/08/27 10:01:01;;;;;;;8.38;1.60;;;19.90;99.90;;;;;;5039866;28;20029;-83
2023/08/27 10:03:29;;;;;;;5.57;1.50;;;19.90;99.90;;;;;;5038525;28;20393;-83
2023/08/27 10:05:55;;;;;;;3.47;1.50;;;20.00;99.90;;;;;;5039703;28;20138;-82
2023/08/27 10:08:21;;;;;;;5.85;1.50;;;20.00;99.90;;;;;;5040357;28;20045;-82
2023/08/27 10:10:47;;;;;;;5.03;1.60;;;20.00;99.90;;;;;;5038726;28;20021;-83
2023/08/27 10:13:19;;;;;;;6.47;3.88;;;19.90;99.90;;;;;;5037342;28;20555;-84
2023/08/27 10:15:46;;;;;;;6.43;2.67;;;19.90;99.90;;;;;;5041078;28;20027;-87
2023/08/27 10:18:16;;;;;;;5.65;2.33;;;20.00;99.90;;;;;;5050930;28;20426;-82
2023/08/27 10:20:42;;;;;;;5.70;3.00;;;20.10;99.90;;;;;;5050698;28;20056;-82
2023/08/27 10:23:10;;;;;;;8.52;3.38;;;20.20;99.90;;;;;;5049204;28;20076;-87
2023/08/27 10:25:37;;;;;;;;;;;20.20;99.90;;;;;;5050799;28;20028;-83
2023/08/27 10:28:05;;;;;;;4.00;1.50;;;20.00;99.90;;;;;;5042922;28;19909;-82
2023/08/27 10:30:32;;;;;;;5.20;1.30;;;19.00;99.90;;;;;;5029575;28;20036;-85
2023/08/27 10:32:58;;;;;;;6.53;1.40;;;18.70;99.90;;;;;;5011799;28;20497;-82
2023/08/27 10:35:24;;;;;;;15.25;8.43;;;18.50;99.90;;;;;;5029821;28;20060;-85
2023/08/27 10:37:54;;;;;;;3.05;1.40;;;18.20;99.90;;;;;;5029700;28;20060;-82
2023/08/27 10:40:20;;;;;;;1.77;1.00;;;18.20;99.90;;;;;;5029546;28;20086;-84
2023/08/27 10:42:46;;;;;;;6.63;1.40;;;17.90;99.90;;;;;;5030266;28;20386;-82
2023/08/27 10:45:14;;;;;;;11.02;7.30;;;17.90;99.90;;;;;;5029466;28;20147;-83
2023/08/27 10:47:39;;;;;;;61.58;35.92;;;18.00;99.90;;;;;;5028328;28;20085;-82
2023/08/27 10:50:06;;;;;;;6.72;1.65;;;18.10;99.90;;;;;;5029399;28;20029;-82
2023/08/27 10:52:51;;;;;;;19.13;11.02;;;18.20;99.90;;;;;;5029364;28;20049;-86
2023/08/27 10:55:21;;;;;;;34.65;18.95;;;18.20;99.90;;;;;;5030218;28;20072;-82
2023/08/27 10:57:46;;;;;;;5.15;1.75;;;18.10;99.90;;;;;;5030150;28;20021;-83
2023/08/27 11:00:13;;;;;;;44.88;25.60;;;18.20;99.90;;;;;;5029243;28;20014;-83
2023/08/27 11:02:58;;;;;;;6.32;3.10;;;18.10;99.90;;;;;;5029243;28;20038;-84
2023/08/27 11:05:29;;;;;;;7.18;3.70;;;18.20;99.90;;;;;;5029163;28;20018;-87
2023/08/27 11:08:01;;;;;;;31.85;16.02;;;18.20;99.90;;;;;;5030002;28;20400;-85
2023/08/27 11:10:32;;;;;;;3.03;1.20;;;18.30;99.90;;;;;;5019098;28;20125;-83
2023/08/27 11:12:58;;;;;;;4.63;1.15;;;18.50;99.90;;;;;;5019130;28;20035;-83
2023/08/27 11:15:31;;;;;;;2.95;1.05;;;18.60;99.90;;;;;;5017995;28;20089;-82
2023/08/27 11:17:58;;;;;;;1.05;1.00;;;18.80;99.90;;;;;;5001857;28;20360;-83
2023/08/27 11:20:25;;;;;;;2.30;0.80;;;18.80;99.90;;;;;;5019324;28;20029;-83
2023/08/27 11:22:58;;;;;;;2.80;1.38;;;18.90;99.90;;;;;;5017947;28;20137;-82
2023/08/27 11:25:28;;;;;;;3.75;1.70;;;18.90;99.90;;;;;;5019325;28;20448;-83
2023/08/27 11:27:55;;;;;;;3.85;1.40;;;19.00;99.90;;;;;;5002853;28;20022;-84
2023/08/27 11:30:25;;;;;;;3.90;1.40;;;19.00;99.90;;;;;;4998514;28;20087;-83
2023/08/27 11:32:53;;;;;;;4.20;1.17;;;19.00;99.90;;;;;;5046649;28;20036;-83
2023/08/27 11:35:37;;;;;;;5.38;1.52;;;18.90;99.90;;;;;;5033339;28;20049;-84
2023/08/27 11:38:03;;;;;;;2.42;1.17;;;18.80;99.90;;;;;;5030582;28;20022;-85
2023/08/27 11:40:29;;;;;;;6.53;1.30;;;18.70;99.90;;;;;;5033450;28;20032;-89
2023/08/27 11:42:58;;;;;;;3.90;1.40;;;18.80;99.90;;;;;;5016630;28;20480;-88
2023/08/27 11:45:39;;;;;;;5.50;1.33;;;18.90;99.90;;;;;;5012588;28;20493;-85
2023/08/27 11:48:06;;;;;;;7.38;1.33;;;19.00;99.90;;;;;;5031944;28;20021;-88
2023/08/27 11:50:42;;;;;;;5.18;1.85;;;19.10;99.90;;;;;;5037504;28;20025;-86
2023/08/27 11:53:10;;;;;;;3.65;1.30;;;19.20;99.90;;;;;;5020236;28;20018;-87
2023/08/27 11:55:36;;;;;;;3.75;1.40;;;19.30;99.90;;;;;;5029209;28;20068;-84
2023/08/27 11:58:05;;;;;;;3.80;1.23;;;19.30;99.90;;;;;;5024741;28;20049;-83
2023/08/27 12:00:31;;;;;;;2.72;1.42;;;19.20;99.90;;;;;;5022908;28;20033;-83
2023/08/27 12:02:58;;;;;;;6.13;1.30;;;19.00;99.90;;;;;;5031580;28;20099;-86
2023/08/27 12:05:26;;;;;;;5.33;1.63;;;19.00;99.90;;;;;;5029962;28;20083;-86
2023/08/27 12:07:52;;;;;;;6.95;1.52;;;18.90;99.90;;;;;;5031699;28;20489;-86
2023/08/27 12:10:18;;;;;;;7.43;1.40;;;18.80;99.90;;;;;;5021872;28;20076;-87
2023/08/27 12:12:44;;;;;;;7.15;1.67;;;18.80;99.90;;;;;;5005848;28;20068;-85
2023/08/27 12:15:11;;;;;;;8.38;1.55;;;18.80;99.90;;;;;;5011785;28;20318;-86
2023/08/27 12:17:37;;;;;;;7.00;1.27;;;18.90;99.90;;;;;;5021121;28;20049;-83
2023/08/27 12:20:07;;;;;;;9.65;1.58;;;19.00;99.90;;;;;;5031433;28;20105;-84
2023/08/27 12:22:46;;;;;;;6.50;1.48;;;19.20;99.90;;;;;;5031628;28;20075;-85
2023/08/27 12:25:12;;;;;;;6.43;1.25;;;19.40;99.90;;;;;;5019535;28;20014;-85
2023/08/27 12:27:38;;;;;;;5.35;1.65;;;19.50;99.90;;;;;;5016839;28;20049;-84
2023/08/27 12:30:07;;;;;;;5.97;1.60;;;19.50;99.90;;;;;;5012009;28;20017;-83
2023/08/27 12:32:34;;;;;;;7.55;2.00;;;19.40;99.90;;;;;;5025972;28;20025;-85
2023/08/27 12:35:00;;;;;;;5.43;1.50;;;19.40;99.90;;;;;;5030709;28;20025;-85
2023/08/27 12:37:26;;;;;;;5.57;1.45;;;19.20;99.90;;;;;;5014735;28;20030;-84
2023/08/27 12:39:51;;;;;;;10.88;1.77;;;19.30;99.90;;;;;;5015595;28;20076;-85
2023/08/27 12:42:18;;;;;;;4.97;1.55;;;19.30;99.90;;;;;;5028058;28;20037;-87
2023/08/27 12:44:44;;;;;;;6.38;1.33;;;19.10;99.90;;;;;;5018353;28;20025;-85